Terminal Aerodrome Forecast
Issued by NWS

Current Version | Previous Version | Graphics & Text | Print | Product List | Glossary On
Versions: 1 2 3 4 5 6 7 8 9 10 11 12 13 14 15 16 17 18
105
FTUS41 KILN 211730
TAFLCK
TAF
KLCK 211730Z 2118/2218 21016G27KT P6SM SCT120 BKN250
     FM212300 23009G16KT P6SM BKN250
     FM220200 28009KT P6SM OVC050
     FM220300 29009KT P6SM VCSH OVC025
     FM220700 32009KT P6SM BKN050
     FM221500 35008KT P6SM SCT025=

USA.gov is the U.S. government's official web portal to all federal, state and local government web resources and services.